Flight Track Log - Related Links

Times and Time Zones

All times are in EDT time to prevent confusion due to time zone crossing. See the SWA1362 flight status page for this flight to view local times or setup timezone preferences in your user account.

Time Position Orientation Groundspeed Altitude Reporting Facility
EDT Latitude Longitude Course Direction KTS MPH feet Rate Location/Type
Sat 07:14:50 AM 40.8000 -73.8667 275° West 163 188 1,900  Level New York TRACON
Sat 07:15:50 AM 40.8500 -73.8833 346° North 210 242 4,500 2,800 Climbing New York TRACON
Sat 07:16:50 AM 40.8667 -73.9500 288° West 242 278 7,500 3,000 Climbing New York TRACON
Sat 07:17:44 AM 40.8667 -74.0500 270° West 277 319 10,200 2,421 Climbing New York TRACON
Sat 07:18:44 AM 40.8833 -74.1667 281° West 336 387 12,100 2,400 Climbing New York TRACON
Sat 07:19:44 AM 40.8833 -74.2833 270° West 365 420 15,000 2,717 Climbing New York TRACON
Sat 07:20:00 AM 40.8405 -74.5000 275° West  Level FlightAware Approximate
Sat 07:20:30 AM 40.8858 -74.3778 272° West 377 434 16,900  Level New York Center
Sat 07:21:29 AM 40.8936 -74.5289 274° West 377 434 17,100 100 Climbing New York Center
Sat 07:22:30 AM 40.8978 -74.6500 273° West 370 426 17,100  Level New York Center
Sat 07:23:28 AM 40.8992 -74.8011 271° West 370 426 17,100 454 Level New York Center
Sat 07:24:29 AM 40.8822 -74.9264 260° West 376 433 18,000 1,736 Climbing New York Center
Sat 07:25:29 AM 40.8608 -75.0622 258° West 381 438 20,600 2,479 Climbing New York Center
Sat 07:26:30 AM 40.8367 -75.2033 257° West 396 456 23,000 2,231 Climbing New York Center
Sat 07:27:30 AM 40.8125 -75.3444 257° West 401 461 25,100 1,950 Climbing New York Center
Sat 07:28:30 AM 40.7881 -75.4933 258° West 411 473 26,900 1,438 Climbing New York Center
Sat 07:29:31 AM 40.7631 -75.6453 258° West 417 480 28,000 1,017 Climbing New York Center
Sat 07:30:28 AM 40.7400 -75.7969 259° West 428 493 28,900 1,513 Climbing New York Center
Sat 07:31:30 AM 40.7128 -75.9456 256° West 428 493 31,000 1,869 Climbing New York Center
Sat 07:32:30 AM 40.6894 -76.0944 258° West 422 486 32,700 1,881 Climbing New York Center
Sat 07:33:28 AM 40.6683 -76.2378 259° West 416 479 34,700 1,664 Climbing New York Center
Sat 07:34:29 AM 40.6828 -76.3756 278° West 385 443 36,000 645 Climbing New York Center
Sat 07:35:29 AM 40.7058 -76.5064 283° West 385 443 36,000  Level New York Center
Sat 07:36:30 AM 40.7242 -76.6419 280° West 385 443 36,000  Level New York Center
Sat 07:37:28 AM 40.7444 -76.7781 281° West 380 437 36,000  Level New York Center
Sat 07:38:29 AM 40.7625 -76.9111 280° West 375 432 36,000  Level New York Center
Sat 07:39:30 AM 40.7825 -77.0472 281° West 375 432 36,000  Level New York Center
Sat 07:40:31 AM 40.8022 -77.1833 281° West 375 432 36,000  Level New York Center
Sat 07:41:28 AM 40.8219 -77.3197 281° West 375 432 36,000  Level New York Center
Sat 07:43:09 AM 40.8544 -77.5467 281° West 394 453 36,000  Level Cleveland Center
Sat 07:44:09 AM 40.8725 -77.6833 280° West 389 448 36,000  Level Cleveland Center
Sat 07:45:09 AM 40.8906 -77.8197 280° West 389 448 36,000  Level Cleveland Center
Sat 07:46:09 AM 40.9106 -77.9564 281° West 383 441 36,000  Level Cleveland Center
Sat 07:47:09 AM 40.9258 -78.0906 279° West 383 441 36,000  Level Cleveland Center
Sat 07:48:09 AM 40.9456 -78.2300 281° West 389 448 36,000  Level Cleveland Center
Sat 07:49:09 AM 40.9633 -78.3833 279° West 389 448 36,000  Level Cleveland Center
Sat 07:50:09 AM 40.9803 -78.5203 279° West 389 448 36,000  Level Cleveland Center
Sat 07:51:09 AM 40.9994 -78.6600 280° West 389 448 36,000  Level Cleveland Center
Sat 07:52:09 AM 41.0142 -78.7972 278° West 389 448 36,000  Level Cleveland Center
Sat 07:53:09 AM 41.0308 -78.9372 279° West 389 448 36,000  Level Cleveland Center
Sat 07:54:09 AM 41.0453 -79.0633 279° West 389 448 36,000  Level Cleveland Center
Sat 07:55:09 AM 41.0617 -79.2006 279° West 389 448 36,000  Level Cleveland Center
Sat 07:56:09 AM 41.0778 -79.3408 279° West 389 448 36,000  Level Cleveland Center
Sat 07:57:09 AM 41.0936 -79.4783 279° West 389 448 36,000  Level Cleveland Center
Sat 07:58:09 AM 41.1075 -79.6131 278° West 389 448 36,000  Level Cleveland Center
Sat 07:59:09 AM 41.1253 -79.7533 280° West 389 448 36,000  Level Cleveland Center
Sat 08:00:09 AM 41.1367 -79.8967 276° West 389 448 36,000  Level Cleveland Center
Sat 08:01:09 AM 41.1539 -80.0317 280° West 384 442 36,000  Level Cleveland Center
Sat 08:02:09 AM 41.1672 -80.1694 277° West 384 442 36,000  Level Cleveland Center
Sat 08:03:09 AM 41.1822 -80.3128 278° West 384 442 36,000  Level Cleveland Center
Sat 08:04:09 AM 41.1969 -80.4672 277° West 389 448 36,000  Level Cleveland Center
Sat 08:05:09 AM 41.2117 -80.6053 278° West 389 448 36,000  Level Cleveland Center
Sat 08:06:09 AM 41.2239 -80.7461 277° West 389 448 36,000  Level Cleveland Center
Sat 08:07:09 AM 41.2383 -80.8869 278° West 389 448 36,000  Level Cleveland Center
Sat 08:08:09 AM 41.2525 -81.0222 278° West 389 448 36,000  Level Cleveland Center
Sat 08:09:09 AM 41.2664 -81.1633 278° West 389 448 36,000  Level Cleveland Center
Sat 08:10:09 AM 41.2803 -81.3069 277° West 389 448 36,000  Level Cleveland Center
Sat 08:11:09 AM 41.2919 -81.4317 277° West 389 448 36,000  Level Cleveland Center
Sat 08:12:09 AM 41.3075 -81.5700 279° West 389 448 36,000  Level Cleveland Center
Sat 08:13:09 AM 41.3186 -81.7139 276° West 389 448 36,000  Level Cleveland Center
Sat 08:14:09 AM 41.3317 -81.8525 277° West 389 448 36,000  Level Cleveland Center
Sat 08:15:09 AM 41.3447 -81.9936 277° West 389 448 36,000  Level Cleveland Center
Sat 08:16:09 AM 41.3572 -82.1572 276° West 397 457 36,000  Level Cleveland Center
Sat 08:17:09 AM 41.3656 -82.3014 274° West 405 466 36,000  Level Cleveland Center
Sat 08:18:09 AM 41.3736 -82.4397 274° West 394 453 36,000  Level Cleveland Center
Sat 08:19:09 AM 41.3817 -82.5867 274° West 394 453 36,000  Level Cleveland Center
Sat 08:20:09 AM 41.3878 -82.7142 274° West 388 447 36,000  Level Cleveland Center
Sat 08:21:09 AM 41.3956 -82.8531 274° West 388 447 36,000  Level Cleveland Center
Sat 08:22:09 AM 41.4031 -82.9917 274° West 388 447 36,000  Level Cleveland Center
Sat 08:23:09 AM 41.4103 -83.1358 274° West 388 447 36,000  Level Cleveland Center
Sat 08:24:09 AM 41.4194 -83.2886 275° West 388 447 36,000  Level Cleveland Center
Sat 08:25:09 AM 41.4242 -83.4272 273° West 388 447 36,000  Level Cleveland Center
Sat 08:26:09 AM 41.4308 -83.5744 274° West 388 447 36,000  Level Cleveland Center
Sat 08:27:09 AM 41.4397 -83.7161 275° West 388 447 36,000  Level Cleveland Center
Sat 08:28:09 AM 41.4461 -83.8603 273° West 388 447 36,000  Level Cleveland Center
Sat 08:29:09 AM 41.4503 -84.0019 272° West 388 447 36,000 -362 Level Cleveland Center
Sat 08:31:28 AM 41.4675 -84.3089 274° West 388 447 34,800 -1,015 Descending Chicago Center
Sat 08:32:30 AM 41.4722 -84.4492 273° West 381 438 32,600 -2,146 Descending Chicago Center
Sat 08:33:31 AM 41.4797 -84.6203 273° West 384 442 30,400 -1,279 Descending Chicago Center
Sat 08:34:32 AM 41.4850 -84.7717 273° West 403 464 30,000 -295 Descending Chicago Center
Sat 08:35:33 AM 41.4914 -84.9325 273° West 428 493 29,800 -634 Descending Chicago Center
Sat 08:36:35 AM 41.4967 -85.0953 273° West 437 503 28,700 -1,024 Descending Chicago Center
Sat 08:37:36 AM 41.5017 -85.2556 272° West 433 498 27,700 -1,328 Descending Chicago Center
Sat 08:38:37 AM 41.5067 -85.4186 272° West 431 496 26,000 -1,951 Descending Chicago Center
Sat 08:39:39 AM 41.5117 -85.5744 273° West 413 475 23,700 -2,195 Descending Chicago Center
Sat 08:40:40 AM 41.5158 -85.7236 272° West 404 465 21,500 -2,098 Descending Chicago Center
Sat 08:41:42 AM 41.5203 -85.8647 272° West 388 447 19,400 -1,951 Descending Chicago Center
Sat 08:42:43 AM 41.5236 -86.0003 272° West 372 428 17,500 -2,115 Descending Chicago Center
Sat 08:43:44 AM 41.5244 -86.1369 271° West 368 423 15,100 -2,195 Descending Chicago Center
Sat 08:44:46 AM 41.5233 -86.2697 269° West 359 413 13,000 -1,951 Descending Chicago Center
Sat 08:45:47 AM 41.5222 -86.4247 270° West 349 402 11,100 -927 Descending Chicago Center
Sat 08:46:49 AM 41.5239 -86.5506 271° West 341 392 11,100 -488 Level Chicago Center
Sat 08:47:50 AM 41.5208 -86.6733 268° West 333 383 10,100 -829 Descending Chicago Center
Sat 08:48:52 AM 41.5200 -86.7850 269° West 318 366 9,400 -829 Descending Chicago Center
Sat 08:49:53 AM 41.5217 -86.8928 271° West 299 344 8,400 -1,230 Descending Chicago Center
Sat 08:50:54 AM 41.5178 -86.9953 267° West 283 326 6,900 -1,171 Descending Chicago Center
Sat 08:51:56 AM 41.5392 -87.1150 283° West 281 323 6,000 -574 Descending Chicago Center
Sat 08:52:28 AM 41.5500 -87.1667 286° West 277 319 6,000 -209 Level Chicago TRACON
Sat 08:53:22 AM 41.5667 -87.2500 285° West 275 316 5,700 -842 Descending Chicago TRACON
Sat 08:54:22 AM 41.6000 -87.3500 294° West 265 305 4,400 -1,041 Descending Chicago TRACON
Sat 08:55:00 AM 41.6150 -87.3972 293° West 269 310 4,000 -240 Descending Chicago Center
Sat 08:56:02 AM 41.6378 -87.4883 289° West 265 305 4,000  Level Chicago Center
Sat 08:57:03 AM 41.6603 -87.5700 290° West 253 291 4,000 -585 Level Chicago Center
Sat 08:58:05 AM 41.7000 -87.6333 310° West 208 239 2,800 -983 Descending Chicago TRACON
Sat 08:58:59 AM 41.7500 -87.6667 334° Northwest 182 209 2,100 -526 Descending Chicago TRACON
Sat 08:59:59 AM 41.7833 -87.6667 360° North 173 199 1,800 -316 Descending Chicago TRACON
Sat 09:00:53 AM 41.8167 -87.6833 340° North 152 175 1,500 -389 Descending Chicago TRACON
Sat 09:01:47 AM 41.8000 -87.7167 236° Southwest 143 165 1,100 -444 Descending Chicago TRACON
Sat 09:04:00 AM 41.7833 -87.7500 340° North  Level FlightAware Approximate

Login

Don't have an account? Register now (free) for customized features, flight alerts, and more!